Time;durP1;ratioP1;P1;durP2;ratioP2;P2;SDS_P1;SDS_P2;PMS_P1;PMS_P2;Temp;Humidity;BMP_temperature;BMP_pressure;BME280_temperature;BME280_humidity;BME280_pressure;Samples;Min_cycle;Max_cycle;Signal;HPM_P1;HPM_P2
2023/11/25 00:02:16;;;;;;;5.70;3.17;;;;;;;;;;5006435;28;20463;-57
2023/11/25 00:04:41;;;;;;;5.35;3.65;;;;;;;;;;5023964;28;20132;-57
2023/11/25 00:07:06;;;;;;;5.35;3.60;;;;;;;;;;5027699;28;20039;-58
2023/11/25 00:09:32;;;;;;;5.78;3.80;;;;;;;;;;5029177;28;20360;-59
2023/11/25 00:11:57;;;;;;;4.82;3.45;;;;;;;;;;5024348;28;20029;-58
2023/11/25 00:14:22;;;;;;;5.40;3.40;;;;;;;;;;5024948;28;20069;-58
2023/11/25 00:16:47;;;;;;;4.70;3.20;;;;;;;;;;5024217;28;20533;-58
2023/11/25 00:19:14;;;;;;;5.75;3.40;;;;;;;;;;5016066;28;20092;-57
2023/11/25 00:21:39;;;;;;;4.30;3.22;;;;;;;;;;5023589;28;20230;-57
2023/11/25 00:24:04;;;;;;;4.72;3.25;;;;;;;;;;5024220;28;20120;-57
2023/11/25 00:26:30;;;;;;;4.80;3.60;;;;;;;;;;5024268;28;20045;-57
2023/11/25 00:28:56;;;;;;;4.47;3.20;;;;;;;;;;5023772;28;20038;-57
2023/11/25 00:31:22;;;;;;;5.13;3.22;;;;;;;;;;5023897;28;20112;-56
2023/11/25 00:33:48;;;;;;;4.40;3.38;;;;;;;;;;5024304;28;20420;-55
2023/11/25 00:36:13;;;;;;;5.07;3.60;;;;;;;;;;5006328;28;20037;-57
2023/11/25 00:38:38;;;;;;;6.40;3.60;;;;;;;;;;5004501;28;20041;-56
2023/11/25 00:41:06;;;;;;;4.65;3.05;;;;;;;;;;5004791;28;20046;-56
2023/11/25 00:43:32;;;;;;;4.65;3.30;;;;;;;;;;5023983;28;20046;-56
2023/11/25 00:45:57;;;;;;;4.75;3.30;;;;;;;;;;5024442;28;20045;-57
2023/11/25 00:48:23;;;;;;;5.70;3.10;;;;;;;;;;5023454;28;20053;-56
2023/11/25 00:50:49;;;;;;;3.75;3.03;;;;;;;;;;5006039;28;20032;-56
2023/11/25 00:53:14;;;;;;;5.13;3.30;;;;;;;;;;5022891;28;20164;-56
2023/11/25 00:55:39;;;;;;;5.00;3.30;;;;;;;;;;5024653;28;20120;-56
2023/11/25 00:58:06;;;;;;;4.65;3.13;;;;;;;;;;5005586;28;20047;-56
2023/11/25 01:00:31;;;;;;;7.35;3.35;;;;;;;;;;5023513;28;20041;-56
2023/11/25 01:02:56;;;;;;;5.13;3.20;;;;;;;;;;5023050;28;20083;-56
2023/11/25 01:05:23;;;;;;;4.80;2.95;;;;;;;;;;5023946;28;20033;-61
2023/11/25 01:07:48;;;;;;;4.43;3.28;;;;;;;;;;5032275;28;20438;-56
2023/11/25 01:10:14;;;;;;;4.55;3.25;;;;;;;;;;5030238;28;20033;-56
2023/11/25 01:12:39;;;;;;;4.22;3.20;;;;;;;;;;5023759;28;20459;-56
2023/11/25 01:15:04;;;;;;;5.30;3.10;;;;;;;;;;5024259;28;20057;-56
2023/11/25 01:17:30;;;;;;;3.50;2.80;;;;;;;;;;5023401;28;20147;-56
2023/11/25 01:19:55;;;;;;;3.67;2.60;;;;;;;;;;5024049;28;20037;-56
2023/11/25 01:22:21;;;;;;;3.63;2.83;;;;;;;;;;5024334;28;20462;-56
2023/11/25 01:24:47;;;;;;;4.47;2.83;;;;;;;;;;5023262;28;20041;-56
2023/11/25 01:27:14;;;;;;;5.05;3.35;;;;;;;;;;5023653;28;20038;-56
2023/11/25 01:29:39;;;;;;;3.97;2.90;;;;;;;;;;5002052;28;20030;-55
2023/11/25 01:32:05;;;;;;;3.92;2.92;;;;;;;;;;5023994;28;20504;-57
2023/11/25 01:34:31;;;;;;;4.05;3.00;;;;;;;;;;5023140;28;20048;-56
2023/11/25 01:36:56;;;;;;;4.40;2.72;;;;;;;;;;5023261;28;20034;-57
2023/11/25 01:39:24;;;;;;;4.05;2.83;;;;;;;;;;5023614;28;20087;-57
2023/11/25 01:41:50;;;;;;;4.05;2.95;;;;;;;;;;5023216;28;20108;-57
2023/11/25 01:44:16;;;;;;;4.72;2.80;;;;;;;;;;5023356;28;20045;-57
2023/11/25 01:46:43;;;;;;;4.47;2.92;;;;;;;;;;5023262;28;20057;-56
2023/11/25 01:49:11;;;;;;;4.50;3.10;;;;;;;;;;5024180;28;20527;-57
2023/11/25 01:51:39;;;;;;;3.60;2.55;;;;;;;;;;5027023;28;20038;-57
2023/11/25 01:54:04;;;;;;;4.43;2.60;;;;;;;;;;5025912;28;20106;-57
2023/11/25 01:56:30;;;;;;;4.13;2.65;;;;;;;;;;5026627;28;20041;-56
2023/11/25 01:58:57;;;;;;;4.10;2.70;;;;;;;;;;5005558;28;20499;-57
2023/11/25 02:01:22;;;;;;;3.72;2.67;;;;;;;;;;5004352;28;20046;-57
2023/11/25 02:03:47;;;;;;;3.67;2.83;;;;;;;;;;5026749;28;20048;-56
2023/11/25 02:06:12;;;;;;;3.25;2.60;;;;;;;;;;5026703;28;20037;-57
2023/11/25 02:08:38;;;;;;;3.72;2.67;;;;;;;;;;5030704;28;20441;-57
2023/11/25 02:11:03;;;;;;;4.40;3.05;;;;;;;;;;5026298;28;20112;-56
2023/11/25 02:13:28;;;;;;;4.15;2.75;;;;;;;;;;5025469;28;20061;-57
2023/11/25 02:15:54;;;;;;;3.47;2.53;;;;;;;;;;5026898;28;20045;-56
2023/11/25 02:18:19;;;;;;;3.35;2.50;;;;;;;;;;5025612;28;20847;-56
2023/11/25 02:20:45;;;;;;;3.78;2.60;;;;;;;;;;5026078;28;20187;-56
2023/11/25 02:23:17;;;;;;;4.07;2.92;;;;;;;;;;5008398;28;20633;-57
2023/11/25 02:25:49;;;;;;;3.60;2.53;;;;;;;;;;5026295;28;20416;-56
2023/11/25 02:28:14;;;;;;;3.75;2.25;;;;;;;;;;5026104;28;20033;-56
2023/11/25 02:30:40;;;;;;;3.83;2.30;;;;;;;;;;5025147;28;20047;-56
2023/11/25 02:33:08;;;;;;;3.83;2.47;;;;;;;;;;5026709;28;20034;-57
2023/11/25 02:35:34;;;;;;;4.18;2.60;;;;;;;;;;5026113;28;20558;-56
2023/11/25 02:37:59;;;;;;;3.88;2.42;;;;;;;;;;5025465;28;20124;-56
2023/11/25 02:40:25;;;;;;;3.25;2.30;;;;;;;;;;5025959;28;20128;-56
2023/11/25 02:42:50;;;;;;;3.42;2.40;;;;;;;;;;5025518;28;20060;-56
2023/11/25 02:45:18;;;;;;;4.13;2.60;;;;;;;;;;5025607;28;20500;-56
2023/11/25 02:47:44;;;;;;;3.47;2.30;;;;;;;;;;5025430;28;20114;-56
2023/11/25 02:50:10;;;;;;;3.63;2.30;;;;;;;;;;5025013;28;20065;-56
2023/11/25 02:52:36;;;;;;;4.47;2.30;;;;;;;;;;5008214;28;20494;-56
2023/11/25 02:55:01;;;;;;;3.40;2.22;;;;;;;;;;5025128;28;20033;-55
2023/11/25 02:57:28;;;;;;;3.17;2.42;;;;;;;;;;5025288;28;20033;-56
2023/11/25 02:59:55;;;;;;;3.75;2.47;;;;;;;;;;5024600;28;20364;-55
2023/11/25 03:02:20;;;;;;;4.28;2.53;;;;;;;;;;5025572;28;20081;-57
2023/11/25 03:04:47;;;;;;;3.03;2.13;;;;;;;;;;5024744;28;20072;-58
2023/11/25 03:07:13;;;;;;;3.33;2.28;;;;;;;;;;5006947;28;20515;-57
2023/11/25 03:09:39;;;;;;;4.22;2.47;;;;;;;;;;5025022;28;20051;-57
2023/11/25 03:12:05;;;;;;;4.18;2.40;;;;;;;;;;5025674;28;20058;-57
2023/11/25 03:14:31;;;;;;;3.63;2.50;;;;;;;;;;5025090;28;20124;-57
2023/11/25 03:16:56;;;;;;;4.13;2.20;;;;;;;;;;5024630;28;20034;-57
2023/11/25 03:19:23;;;;;;;3.33;2.22;;;;;;;;;;5024970;28;20436;-56
2023/11/25 03:21:50;;;;;;;3.72;2.40;;;;;;;;;;5025037;28;20128;-55
2023/11/25 03:24:16;;;;;;;2.58;1.90;;;;;;;;;;5025001;28;20452;-55
2023/11/25 03:26:43;;;;;;;3.78;2.47;;;;;;;;;;5024813;28;20072;-56
2023/11/25 03:29:09;;;;;;;2.88;2.20;;;;;;;;;;5023289;28;20037;-57
2023/11/25 03:31:40;;;;;;;3.22;2.33;;;;;;;;;;5024677;28;20045;-56
2023/11/25 03:34:05;;;;;;;2.45;2.10;;;;;;;;;;5024471;28;20427;-56
2023/11/25 03:36:31;;;;;;;3.22;2.38;;;;;;;;;;5024869;28;20071;-56
2023/11/25 03:38:56;;;;;;;3.40;2.00;;;;;;;;;;5027701;28;20069;-55
2023/11/25 03:41:23;;;;;;;3.08;2.10;;;;;;;;;;5024792;28;20069;-56
2023/11/25 03:43:48;;;;;;;3.03;2.10;;;;;;;;;;5024961;28;20039;-55
2023/11/25 03:46:13;;;;;;;3.75;1.90;;;;;;;;;;5024382;28;20447;-55
2023/11/25 03:48:39;;;;;;;2.75;2.00;;;;;;;;;;5024127;28;20320;-57
2023/11/25 03:51:05;;;;;;;3.42;2.15;;;;;;;;;;5024920;28;20037;-56
2023/11/25 03:53:31;;;;;;;3.97;2.20;;;;;;;;;;5029415;28;20045;-56
2023/11/25 03:55:59;;;;;;;4.78;1.90;;;;;;;;;;5027891;28;20042;-56
2023/11/25 03:58:25;;;;;;;2.60;1.80;;;;;;;;;;5027479;28;20131;-56
2023/11/25 04:00:50;;;;;;;3.45;2.00;;;;;;;;;;5037572;28;20119;-56
2023/11/25 04:03:15;;;;;;;2.65;1.83;;;;;;;;;;5024868;28;20487;-56
2023/11/25 04:05:41;;;;;;;2.45;1.77;;;;;;;;;;5023196;28;20566;-56
2023/11/25 04:08:06;;;;;;;2.75;1.60;;;;;;;;;;5023770;28;20018;-56
2023/11/25 04:10:31;;;;;;;2.80;2.17;;;;;;;;;;5006674;28;20057;-56
2023/11/25 04:12:57;;;;;;;3.03;2.00;;;;;;;;;;5024198;28;20041;-56
2023/11/25 04:15:22;;;;;;;2.70;1.88;;;;;;;;;;5022604;28;20024;-56
2023/11/25 04:17:48;;;;;;;3.38;1.98;;;;;;;;;;5023583;28;20108;-56
2023/11/25 04:20:13;;;;;;;2.88;1.80;;;;;;;;;;5023219;28;20425;-56
2023/11/25 04:22:40;;;;;;;2.60;1.70;;;;;;;;;;5023473;28;20475;-56
2023/11/25 04:25:05;;;;;;;2.30;1.60;;;;;;;;;;5022434;28;20084;-56
2023/11/25 04:27:31;;;;;;;3.63;1.63;;;;;;;;;;5021980;28;20475;-56
2023/11/25 04:29:57;;;;;;;2.63;1.88;;;;;;;;;;5023042;28;20025;-57
2023/11/25 04:32:22;;;;;;;3.25;1.85;;;;;;;;;;5024073;28;20451;-56
2023/11/25 04:34:48;;;;;;;2.55;1.70;;;;;;;;;;5022872;28;20052;-57
2023/11/25 04:37:13;;;;;;;2.60;1.70;;;;;;;;;;5022948;28;20303;-56
2023/11/25 04:39:38;;;;;;;2.13;1.60;;;;;;;;;;5022041;28;20624;-57
2023/11/25 04:42:04;;;;;;;3.90;1.95;;;;;;;;;;5000116;28;20485;-56
2023/11/25 04:44:29;;;;;;;3.25;1.90;;;;;;;;;;5022628;28;20029;-56
2023/11/25 04:46:55;;;;;;;2.38;1.63;;;;;;;;;;5022595;28;20050;-57
2023/11/25 04:49:21;;;;;;;2.85;1.80;;;;;;;;;;5023472;28;20450;-58
2023/11/25 04:51:47;;;;;;;2.22;1.63;;;;;;;;;;5023350;28;20060;-57
2023/11/25 04:54:13;;;;;;;2.22;1.67;;;;;;;;;;5003621;28;20049;-57
2023/11/25 04:56:38;;;;;;;2.60;1.60;;;;;;;;;;5022838;28;20021;-57
2023/11/25 04:59:06;;;;;;;2.30;1.60;;;;;;;;;;5023196;28;20075;-56
2023/11/25 05:01:31;;;;;;;4.35;1.60;;;;;;;;;;5023463;28;20055;-56
2023/11/25 05:03:57;;;;;;;3.10;1.50;;;;;;;;;;5022896;28;20018;-56
2023/11/25 05:06:22;;;;;;;1.90;1.40;;;;;;;;;;5021979;28;20567;-56
2023/11/25 05:08:47;;;;;;;2.95;1.50;;;;;;;;;;5023484;28;20092;-57
2023/11/25 05:11:13;;;;;;;2.40;1.60;;;;;;;;;;5013320;28;20022;-56
2023/11/25 05:13:38;;;;;;;2.95;1.65;;;;;;;;;;5022104;28;20458;-56
2023/11/25 05:16:03;;;;;;;2.67;1.80;;;;;;;;;;5022981;28;20041;-56
2023/11/25 05:18:29;;;;;;;2.42;1.80;;;;;;;;;;5023214;28;20191;-56
2023/11/25 05:20:55;;;;;;;2.10;1.52;;;;;;;;;;5022425;28;20041;-59
2023/11/25 05:23:20;;;;;;;2.20;1.30;;;;;;;;;;5022739;28;20518;-58
2023/11/25 05:25:45;;;;;;;2.13;1.20;;;;;;;;;;5026470;28;20041;-58
2023/11/25 05:28:11;;;;;;;1.70;1.30;;;;;;;;;;5026617;28;20033;-59
2023/11/25 05:30:36;;;;;;;1.92;1.27;;;;;;;;;;5026774;28;20029;-58
2023/11/25 05:33:01;;;;;;;2.05;1.38;;;;;;;;;;5026239;28;20030;-58
2023/11/25 05:35:27;;;;;;;2.13;1.30;;;;;;;;;;5026565;28;20053;-58
2023/11/25 05:37:53;;;;;;;2.40;1.20;;;;;;;;;;5005697;28;20030;-58
2023/11/25 05:40:18;;;;;;;1.98;1.27;;;;;;;;;;5010423;28;20029;-57
2023/11/25 05:42:47;;;;;;;1.83;1.17;;;;;;;;;;5026211;28;20502;-57
2023/11/25 05:45:12;;;;;;;2.10;1.40;;;;;;;;;;5026478;28;20034;-58
2023/11/25 05:47:38;;;;;;;3.17;1.40;;;;;;;;;;5007554;28;20040;-57
2023/11/25 05:50:04;;;;;;;2.53;1.30;;;;;;;;;;5025409;28;20048;-57
2023/11/25 05:52:29;;;;;;;2.03;1.30;;;;;;;;;;5007270;28;20386;-56
2023/11/25 05:54:55;;;;;;;1.92;1.05;;;;;;;;;;5024363;28;20117;-58
2023/11/25 05:57:21;;;;;;;1.77;1.25;;;;;;;;;;5006981;28;20049;-57
2023/11/25 05:59:46;;;;;;;2.78;1.23;;;;;;;;;;5029533;28;20026;-56
2023/11/25 06:02:12;;;;;;;2.70;1.30;;;;;;;;;;5026327;28;20495;-57
2023/11/25 06:04:37;;;;;;;2.75;1.23;;;;;;;;;;5025884;28;20073;-56
2023/11/25 06:07:02;;;;;;;1.88;1.05;;;;;;;;;;5007684;28;20419;-56
2023/11/25 06:09:27;;;;;;;2.83;1.35;;;;;;;;;;5021467;28;20107;-56
2023/11/25 06:11:53;;;;;;;2.00;1.20;;;;;;;;;;5016242;28;20315;-57
2023/11/25 06:14:19;;;;;;;1.77;1.00;;;;;;;;;;5025605;28;20423;-57
2023/11/25 06:16:45;;;;;;;2.10;1.30;;;;;;;;;;5025031;28;20127;-57
2023/11/25 06:19:11;;;;;;;1.92;1.33;;;;;;;;;;5011329;28;20498;-58
2023/11/25 06:21:37;;;;;;;1.80;1.08;;;;;;;;;;5024544;28;20056;-57
2023/11/25 06:24:04;;;;;;;1.75;0.93;;;;;;;;;;5025530;28;20171;-57
2023/11/25 06:26:29;;;;;;;1.60;1.25;;;;;;;;;;5020167;28;20103;-55
2023/11/25 06:28:55;;;;;;;1.60;1.10;;;;;;;;;;5026511;28;20513;-56
2023/11/25 06:31:21;;;;;;;1.65;1.02;;;;;;;;;;5021870;28;20056;-56
2023/11/25 06:33:46;;;;;;;2.38;1.30;;;;;;;;;;5026085;28;20030;-56
2023/11/25 06:36:12;;;;;;;1.60;0.90;;;;;;;;;;5024702;28;20121;-55
2023/11/25 06:38:37;;;;;;;1.40;0.85;;;;;;;;;;5025408;28;20052;-56
2023/11/25 06:41:02;;;;;;;1.92;0.98;;;;;;;;;;5016135;28;20049;-58
2023/11/25 06:43:28;;;;;;;1.63;1.05;;;;;;;;;;5025458;28;20095;-58
2023/11/25 06:45:53;;;;;;;1.98;1.00;;;;;;;;;;5025032;28;20041;-56
2023/11/25 06:48:19;;;;;;;1.90;1.20;;;;;;;;;;5025374;28;20030;-57
2023/11/25 06:50:44;;;;;;;2.25;0.90;;;;;;;;;;5026172;28;20037;-55
2023/11/25 06:53:09;;;;;;;1.30;0.80;;;;;;;;;;5026714;28;20224;-57
2023/11/25 06:55:35;;;;;;;1.52;0.80;;;;;;;;;;5025458;28;20499;-56
2023/11/25 06:58:00;;;;;;;1.45;0.95;;;;;;;;;;5024620;28;20275;-56
2023/11/25 07:00:26;;;;;;;1.20;0.80;;;;;;;;;;5024770;28;20065;-55
2023/11/25 07:02:51;;;;;;;1.17;0.80;;;;;;;;;;5025178;28;20049;-55
2023/11/25 07:05:17;;;;;;;2.30;0.73;;;;;;;;;;5025001;28;20036;-56
2023/11/25 07:07:42;;;;;;;1.48;0.60;;;;;;;;;;5006350;28;20057;-56
2023/11/25 07:10:13;;;;;;;1.63;0.80;;;;;;;;;;5017866;28;20104;-58
2023/11/25 07:12:39;;;;;;;1.10;0.70;;;;;;;;;;5016506;28;20557;-56
2023/11/25 07:15:05;;;;;;;1.33;0.88;;;;;;;;;;5017401;28;20041;-56
2023/11/25 07:17:30;;;;;;;3.17;0.70;;;;;;;;;;5023801;28;20073;-59
2023/11/25 07:19:56;;;;;;;1.65;0.70;;;;;;;;;;5025432;28;20068;-57
2023/11/25 07:22:21;;;;;;;1.67;0.77;;;;;;;;;;5024517;28;20496;-57
2023/11/25 07:24:46;;;;;;;1.52;0.60;;;;;;;;;;5025252;28;20036;-57
2023/11/25 07:27:16;;;;;;;1.83;0.60;;;;;;;;;;5026972;28;20033;-57
2023/11/25 07:29:41;;;;;;;0.88;0.57;;;;;;;;;;5024663;28;20037;-57
2023/11/25 07:32:09;;;;;;;2.85;0.70;;;;;;;;;;5024653;28;20041;-57
2023/11/25 07:34:35;;;;;;;1.48;0.70;;;;;;;;;;5024349;28;20576;-56
2023/11/25 07:37:01;;;;;;;0.75;0.40;;;;;;;;;;5023889;28;20041;-57
2023/11/25 07:39:29;;;;;;;2.08;0.63;;;;;;;;;;5020342;28;20035;-57
2023/11/25 07:41:54;;;;;;;1.67;0.73;;;;;;;;;;5015915;28;20077;-56
2023/11/25 07:44:21;;;;;;;0.93;0.60;;;;;;;;;;5023815;28;20488;-58
2023/11/25 07:46:47;;;;;;;1.10;0.50;;;;;;;;;;5023291;28;20084;-57
2023/11/25 07:49:12;;;;;;;1.00;0.60;;;;;;;;;;5006399;28;20411;-57
2023/11/25 07:51:38;;;;;;;1.00;0.60;;;;;;;;;;5025039;28;20034;-56
2023/11/25 07:54:03;;;;;;;0.95;0.50;;;;;;;;;;5024440;28;20172;-56
2023/11/25 07:56:28;;;;;;;1.13;0.45;;;;;;;;;;5023966;28;20103;-56
2023/11/25 07:58:54;;;;;;;1.55;0.70;;;;;;;;;;5023678;28;20136;-56
2023/11/25 08:01:19;;;;;;;0.90;0.50;;;;;;;;;;5016734;28;20506;-57
2023/11/25 08:03:44;;;;;;;0.80;0.40;;;;;;;;;;5021224;28;20106;-57
2023/11/25 08:06:10;;;;;;;1.02;0.55;;;;;;;;;;5008899;28;20428;-58
2023/11/25 08:08:35;;;;;;;1.98;0.50;;;;;;;;;;5024749;28;20034;-56
2023/11/25 08:11:00;;;;;;;1.23;0.55;;;;;;;;;;5020913;28;20230;-57
2023/11/25 08:13:26;;;;;;;1.20;0.60;;;;;;;;;;5019626;28;20033;-58
2023/11/25 08:15:51;;;;;;;1.20;0.43;;;;;;;;;;5022532;28;20112;-57
2023/11/25 08:18:18;;;;;;;0.77;0.55;;;;;;;;;;5021836;28;20565;-58
2023/11/25 08:20:43;;;;;;;0.80;0.40;;;;;;;;;;5023698;28;20425;-58
2023/11/25 08:23:09;;;;;;;1.73;0.50;;;;;;;;;;5022722;28;20029;-57
2023/11/25 08:25:35;;;;;;;0.80;0.50;;;;;;;;;;5019088;28;20057;-58
2023/11/25 08:28:00;;;;;;;0.90;0.50;;;;;;;;;;5023991;28;20584;-57
2023/11/25 08:30:25;;;;;;;0.88;0.40;;;;;;;;;;5018646;28;20042;-58
2023/11/25 08:32:51;;;;;;;0.90;0.50;;;;;;;;;;5023354;28;20558;-58
2023/11/25 08:35:16;;;;;;;1.02;0.50;;;;;;;;;;5021737;28;20080;-57
2023/11/25 08:37:41;;;;;;;0.75;0.52;;;;;;;;;;5004297;28;20069;-58
2023/11/25 08:40:15;;;;;;;0.68;0.40;;;;;;;;;;5001902;28;20038;-58
2023/11/25 08:42:41;;;;;;;1.58;0.50;;;;;;;;;;5019002;28;20446;-58
2023/11/25 08:45:06;;;;;;;0.80;0.50;;;;;;;;;;5023093;28;20056;-57
2023/11/25 08:47:34;;;;;;;0.93;0.50;;;;;;;;;;5023750;28;20030;-58
2023/11/25 08:50:00;;;;;;;1.00;0.50;;;;;;;;;;5004506;28;20041;-58
2023/11/25 08:52:27;;;;;;;1.02;0.60;;;;;;;;;;5021742;28;20116;-59
2023/11/25 08:54:52;;;;;;;0.70;0.30;;;;;;;;;;5005123;28;20057;-58
2023/11/25 08:57:18;;;;;;;0.98;0.50;;;;;;;;;;5022713;28;20545;-57
2023/11/25 08:59:44;;;;;;;1.13;0.50;;;;;;;;;;5024499;28;20053;-58
2023/11/25 09:02:12;;;;;;;0.50;0.30;;;;;;;;;;5025668;28;20390;-57
2023/11/25 09:04:38;;;;;;;1.80;0.52;;;;;;;;;;5026997;28;20046;-59
2023/11/25 09:07:05;;;;;;;0.98;0.55;;;;;;;;;;5008556;28;20376;-58
2023/11/25 09:09:31;;;;;;;0.85;0.50;;;;;;;;;;5022658;28;20096;-58
2023/11/25 09:11:57;;;;;;;1.60;0.50;;;;;;;;;;5019894;28;20029;-57
2023/11/25 09:14:23;;;;;;;0.55;0.30;;;;;;;;;;5004918;28;20496;-58
2023/11/25 09:16:50;;;;;;;0.70;0.40;;;;;;;;;;5022955;28;20052;-58
2023/11/25 09:19:15;;;;;;;0.98;0.40;;;;;;;;;;5025713;28;20047;-58
2023/11/25 09:21:41;;;;;;;0.85;0.50;;;;;;;;;;5026697;28;20049;-57
2023/11/25 09:24:06;;;;;;;1.08;0.50;;;;;;;;;;5024845;28;20053;-57
2023/11/25 09:26:31;;;;;;;1.60;0.50;;;;;;;;;;5024726;28;20049;-58
2023/11/25 09:28:57;;;;;;;1.10;0.50;;;;;;;;;;5025889;28;20033;-59
2023/11/25 09:31:25;;;;;;;1.63;0.65;;;;;;;;;;5026396;28;20025;-58
2023/11/25 09:33:50;;;;;;;1.20;0.60;;;;;;;;;;5027183;28;20047;-58
2023/11/25 09:36:16;;;;;;;1.77;0.60;;;;;;;;;;5025567;28;20124;-57
2023/11/25 09:38:42;;;;;;;1.27;0.60;;;;;;;;;;5026437;28;20029;-58
2023/11/25 09:41:07;;;;;;;1.20;0.55;;;;;;;;;;5014803;28;20052;-57
2023/11/25 09:43:32;;;;;;;2.13;0.70;;;;;;;;;;5010888;28;20163;-58
2023/11/25 09:45:58;;;;;;;1.80;0.80;;;;;;;;;;5006470;28;20145;-57
2023/11/25 09:48:23;;;;;;;1.05;0.50;;;;;;;;;;5024753;28;20032;-57
2023/11/25 09:50:52;;;;;;;1.30;0.60;;;;;;;;;;5024356;28;20065;-57
2023/11/25 09:53:31;;;;;;;1.52;0.70;;;;;;;;;;5001725;28;20072;-57
2023/11/25 09:55:57;;;;;;;3.50;0.50;;;;;;;;;;5023993;28;20129;-57
2023/11/25 09:58:23;;;;;;;1.40;0.60;;;;;;;;;;5026753;28;20136;-57
2023/11/25 10:00:49;;;;;;;1.10;0.50;;;;;;;;;;5017481;28;20448;-57
2023/11/25 10:03:14;;;;;;;1.27;0.60;;;;;;;;;;5003907;28;20061;-57
2023/11/25 10:05:40;;;;;;;1.90;0.73;;;;;;;;;;5025132;28;20044;-58
2023/11/25 10:08:05;;;;;;;1.38;0.50;;;;;;;;;;5026616;28;20116;-57
2023/11/25 10:10:32;;;;;;;1.02;0.50;;;;;;;;;;5017488;28;20468;-57
2023/11/25 10:12:59;;;;;;;1.30;0.60;;;;;;;;;;5023812;28;20030;-58
2023/11/25 10:15:24;;;;;;;1.33;0.50;;;;;;;;;;5025935;28;20069;-58
2023/11/25 10:17:49;;;;;;;1.20;0.55;;;;;;;;;;5027553;28;20056;-57
2023/11/25 10:20:22;;;;;;;2.80;0.80;;;;;;;;;;5025753;28;20049;-57
2023/11/25 10:22:53;;;;;;;2.45;0.90;;;;;;;;;;5024456;28;20041;-57
2023/11/25 10:25:18;;;;;;;1.77;0.60;;;;;;;;;;5026278;28;20010;-57
2023/11/25 10:27:44;;;;;;;1.17;0.68;;;;;;;;;;5025648;28;20071;-57
2023/11/25 10:30:11;;;;;;;1.83;0.70;;;;;;;;;;5025927;28;20025;-57
2023/11/25 10:32:38;;;;;;;1.30;0.77;;;;;;;;;;5022290;28;20029;-58
2023/11/25 10:35:03;;;;;;;3.75;0.80;;;;;;;;;;5026032;28;20530;-58
2023/11/25 10:37:31;;;;;;;3.65;0.95;;;;;;;;;;5007855;28;20133;-58
2023/11/25 10:39:56;;;;;;;5.05;1.05;;;;;;;;;;5025339;28;20120;-58
2023/11/25 10:42:21;;;;;;;4.03;0.80;;;;;;;;;;5003752;28;20412;-57
2023/11/25 10:44:48;;;;;;;5.03;0.85;;;;;;;;;;5025244;28;20030;-58
2023/11/25 10:47:30;;;;;;;6.78;1.05;;;;;;;;;;5007419;28;20049;-57
2023/11/25 10:49:55;;;;;;;4.28;1.00;;;;;;;;;;5024241;28;20059;-58
2023/11/25 10:52:21;;;;;;;6.35;1.20;;;;;;;;;;5025167;28;20037;-58
2023/11/25 10:54:47;;;;;;;2.22;0.82;;;;;;;;;;5025304;28;20042;-57
2023/11/25 10:57:12;;;;;;;2.63;0.80;;;;;;;;;;5006614;28;20026;-57
2023/11/25 10:59:40;;;;;;;5.13;1.00;;;;;;;;;;5025115;28;20044;-57
2023/11/25 11:02:08;;;;;;;2.90;0.85;;;;;;;;;;5003350;28;20132;-57
2023/11/25 11:04:37;;;;;;;5.60;1.08;;;;;;;;;;5010364;28;20408;-58
2023/11/25 11:07:04;;;;;;;3.55;0.93;;;;;;;;;;5019694;28;20515;-56
2023/11/25 11:09:30;;;;;;;3.47;1.17;;;;;;;;;;5020954;28;20068;-56
2023/11/25 11:12:03;;;;;;;2.17;0.90;;;;;;;;;;5016199;28;20064;-56
2023/11/25 11:14:29;;;;;;;4.53;1.02;;;;;;;;;;5026496;28;20134;-57
2023/11/25 11:16:57;;;;;;;3.22;1.10;;;;;;;;;;5026760;28;20037;-57
2023/11/25 11:19:34;;;;;;;3.95;0.90;;;;;;;;;;5020221;28;20041;-58
2023/11/25 11:22:02;;;;;;;4.80;1.27;;;;;;;;;;4998302;28;20573;-57
2023/11/25 11:24:39;;;;;;;4.15;1.02;;;;;;;;;;5003436;28;20065;-58
2023/11/25 11:27:17;;;;;;;2.50;1.00;;;;;;;;;;5015452;28;20033;-58
2023/11/25 11:29:43;;;;;;;4.47;0.90;;;;;;;;;;5006515;28;20511;-57
2023/11/25 11:32:08;;;;;;;3.70;0.90;;;;;;;;;;5025761;28;20065;-56
2023/11/25 11:34:34;;;;;;;4.10;1.23;;;;;;;;;;5024765;28;20037;-58
2023/11/25 11:37:00;;;;;;;3.47;1.13;;;;;;;;;;5024460;28;20034;-56
2023/11/25 11:39:37;;;;;;;3.70;0.85;;;;;;;;;;5021888;28;20037;-56
2023/11/25 11:42:34;;;;;;;3.45;0.95;;;;;;;;;;5020004;28;20064;-56
2023/11/25 11:45:15;;;;;;;2.53;1.10;;;;;;;;;;5024188;28;20030;-56
2023/11/25 11:47:44;;;;;;;2.53;1.00;;;;;;;;;;5023274;28;20059;-56
2023/11/25 11:50:09;;;;;;;3.27;1.07;;;;;;;;;;5023778;28;20499;-55
2023/11/25 11:52:45;;;;;;;3.88;1.20;;;;;;;;;;5024906;28;20281;-55
2023/11/25 11:55:29;;;;;;;3.63;1.13;;;;;;;;;;5019627;28;20047;-55
2023/11/25 11:58:10;;;;;;;3.35;1.00;;;;;;;;;;5024411;28;20038;-57
2023/11/25 12:00:39;;;;;;;3.03;1.40;;;;;;;;;;5023084;28;20049;-56
2023/11/25 12:03:05;;;;;;;2.92;1.00;;;;;;;;;;5025137;28;20341;-56
2023/11/25 12:05:31;;;;;;;2.08;0.95;;;;;;;;;;5029519;28;20041;-56
2023/11/25 12:07:56;;;;;;;3.28;0.90;;;;;;;;;;5027729;28;20077;-56
2023/11/25 12:10:22;;;;;;;3.05;0.90;;;;;;;;;;5005137;28;20044;-56
2023/11/25 12:12:48;;;;;;;5.60;1.38;;;;;;;;;;5023090;28;20045;-56
2023/11/25 12:15:15;;;;;;;2.33;1.00;;;;;;;;;;5024396;28;20029;-58
2023/11/25 12:17:42;;;;;;;2.17;1.15;;;;;;;;;;5007130;28;20095;-57
2023/11/25 12:20:10;;;;;;;1.90;0.93;;;;;;;;;;5035813;28;20148;-57
2023/11/25 12:22:36;;;;;;;3.05;1.00;;;;;;;;;;5023685;28;20056;-57
2023/11/25 12:25:01;;;;;;;2.95;1.30;;;;;;;;;;5023779;28;20033;-57
2023/11/25 12:27:27;;;;;;;2.53;1.15;;;;;;;;;;5024429;28;20458;-57
2023/11/25 12:29:52;;;;;;;4.32;1.23;;;;;;;;;;5001773;28;20409;-57
2023/11/25 12:32:17;;;;;;;1.92;1.08;;;;;;;;;;5023800;28;20149;-57
2023/11/25 12:34:45;;;;;;;2.58;1.15;;;;;;;;;;5023840;28;20056;-57
2023/11/25 12:37:12;;;;;;;2.30;0.90;;;;;;;;;;5024038;28;20044;-55
2023/11/25 12:39:38;;;;;;;2.70;1.05;;;;;;;;;;5023371;28;20084;-59
2023/11/25 12:42:04;;;;;;;2.95;0.90;;;;;;;;;;5016682;28;20087;-56
2023/11/25 12:44:46;;;;;;;2.60;0.95;;;;;;;;;;5036727;28;20144;-56
2023/11/25 12:47:12;;;;;;;2.35;1.05;;;;;;;;;;5017302;28;20033;-56
2023/11/25 12:49:38;;;;;;;3.10;1.00;;;;;;;;;;5022020;28;20120;-57
2023/11/25 12:52:03;;;;;;;2.05;0.95;;;;;;;;;;5023807;28;20148;-56
2023/11/25 12:54:44;;;;;;;2.92;1.15;;;;;;;;;;5022365;28;20126;-57
2023/11/25 12:57:10;;;;;;;1.83;1.05;;;;;;;;;;5022768;28;20048;-56
2023/11/25 12:59:35;;;;;;;2.58;1.08;;;;;;;;;;5004928;28;20034;-58
2023/11/25 13:02:04;;;;;;;1.92;0.93;;;;;;;;;;5023021;28;20115;-56
2023/11/25 13:04:29;;;;;;;3.63;1.08;;;;;;;;;;5024164;28;20416;-56
2023/11/25 13:06:59;;;;;;;2.00;0.88;;;;;;;;;;5021368;28;20041;-55
2023/11/25 13:09:27;;;;;;;;;;;;;;;;;;5022715;28;20116;-57
2023/11/25 13:11:53;;;;;;;2.30;0.90;;;;;;;;;;5013808;28;19960;-56
2023/11/25 13:14:18;;;;;;;2.20;1.00;;;;;;;;;;5022696;28;20159;-56
2023/11/25 13:16:44;;;;;;;2.17;1.00;;;;;;;;;;5025189;28;20538;-56
2023/11/25 13:19:09;;;;;;;2.00;1.10;;;;;;;;;;5020571;28;20033;-56
2023/11/25 13:21:35;;;;;;;1.98;0.90;;;;;;;;;;5023953;28;20846;-57
2023/11/25 13:24:01;;;;;;;2.58;1.00;;;;;;;;;;5021982;28;20040;-56
2023/11/25 13:26:27;;;;;;;7.38;1.40;;;;;;;;;;5023818;28;20021;-57
2023/11/25 13:28:53;;;;;;;5.15;1.40;;;;;;;;;;5022236;28;20463;-57
2023/11/25 13:31:18;;;;;;;4.28;1.30;;;;;;;;;;5022524;28;20025;-56
2023/11/25 13:33:43;;;;;;;5.45;1.40;;;;;;;;;;5024701;28;20028;-57
2023/11/25 13:36:09;;;;;;;6.45;1.60;;;;;;;;;;5025395;28;20018;-57
2023/11/25 13:38:34;;;;;;;4.25;1.00;;;;;;;;;;5026616;28;20461;-57
2023/11/25 13:40:59;;;;;;;4.82;1.40;;;;;;;;;;5022822;28;20024;-57
2023/11/25 13:43:25;;;;;;;2.85;1.25;;;;;;;;;;5019866;28;20018;-57
2023/11/25 13:45:50;;;;;;;4.18;1.33;;;;;;;;;;5024812;28;20033;-58
2023/11/25 13:48:17;;;;;;;2.72;1.20;;;;;;;;;;5033663;28;20439;-57
2023/11/25 13:50:42;;;;;;;2.97;1.20;;;;;;;;;;5028673;28;20380;-58
2023/11/25 13:53:07;;;;;;;3.78;1.13;;;;;;;;;;5027475;28;20009;-58
2023/11/25 13:55:43;;;;;;;2.95;1.10;;;;;;;;;;5028805;28;20475;-57
2023/11/25 13:58:11;;;;;;;3.50;1.20;;;;;;;;;;5032592;28;20040;-57
2023/11/25 14:00:37;;;;;;;4.80;1.20;;;;;;;;;;5025765;28;20119;-57
2023/11/25 14:03:07;;;;;;;4.32;1.30;;;;;;;;;;5028021;28;20528;-56
2023/11/25 14:05:35;;;;;;;;;;;;;;;;;;5025187;28;20056;-58
2023/11/25 14:08:00;;;;;;;3.05;1.13;;;;;;;;;;5026719;28;20312;-58
2023/11/25 14:10:26;;;;;;;3.83;1.10;;;;;;;;;;5022036;28;20110;-60
2023/11/25 14:12:51;;;;;;;3.95;1.35;;;;;;;;;;5005749;28;20437;-58
2023/11/25 14:15:18;;;;;;;2.90;1.20;;;;;;;;;;5026101;28;20427;-58
2023/11/25 14:17:43;;;;;;;3.78;1.10;;;;;;;;;;5008257;28;20052;-58
2023/11/25 14:20:15;;;;;;;2.58;0.85;;;;;;;;;;5026986;28;20049;-57
2023/11/25 14:22:47;;;;;;;4.03;1.33;;;;;;;;;;5026002;28;20057;-57
2023/11/25 14:25:15;;;;;;;3.47;1.17;;;;;;;;;;5023314;28;20033;-57
2023/11/25 14:27:41;;;;;;;3.45;1.30;;;;;;;;;;5026632;28;20040;-57
2023/11/25 14:30:07;;;;;;;2.80;1.25;;;;;;;;;;5025754;28;20037;-58
2023/11/25 14:32:32;;;;;;;2.20;1.00;;;;;;;;;;5025311;28;20038;-57
2023/11/25 14:34:57;;;;;;;2.33;1.20;;;;;;;;;;5025921;28;20034;-57
2023/11/25 14:37:23;;;;;;;3.70;1.33;;;;;;;;;;5025933;28;20538;-57
2023/11/25 14:39:48;;;;;;;2.20;1.17;;;;;;;;;;5012678;28;20029;-56